Time;durP1;ratioP1;P1;durP2;ratioP2;P2;SDS_P1;SDS_P2;PMS_P1;PMS_P2;Temp;Humidity;BMP_temperature;BMP_pressure;BME280_temperature;BME280_humidity;BME280_pressure;Samples;Min_cycle;Max_cycle;Signal;HPM_P1;HPM_P2
2022/09/10 00:00:32;;;;;;;1.60;1.50;;;21.90;60.50;22.90;100247.00;;;;5069670;28;20193;-40
2022/09/10 00:02:58;;;;;;;2.17;1.50;;;22.00;60.70;22.90;100242.00;;;;5068269;28;20749;-40
2022/09/10 00:05:23;;;;;;;1.60;1.50;;;21.90;60.50;22.90;100248.00;;;;5069303;28;20166;-40
2022/09/10 00:07:49;;;;;;;2.47;1.70;;;21.90;60.50;22.90;100244.00;;;;5069009;28;20197;-41
2022/09/10 00:10:17;;;;;;;1.63;1.50;;;21.90;60.50;22.90;100248.00;;;;5069244;28;20192;-42
2022/09/10 00:12:43;;;;;;;1.80;1.70;;;21.90;60.50;22.90;100267.00;;;;5069792;28;20204;-40
2022/09/10 00:15:09;;;;;;;2.23;1.70;;;21.90;60.50;22.90;100258.00;;;;5077968;28;20150;-41
2022/09/10 00:17:37;;;;;;;1.50;1.40;;;21.90;60.50;22.90;100254.00;;;;5092624;28;20596;-40
2022/09/10 00:20:04;;;;;;;1.73;1.63;;;21.90;60.40;22.90;100188.00;;;;5091307;28;20174;-41
2022/09/10 00:22:32;;;;;;;1.77;1.67;;;21.90;60.60;22.90;100258.00;;;;5071225;28;20225;-42
2022/09/10 00:24:58;;;;;;;1.60;1.50;;;21.90;60.80;22.80;100253.00;;;;5069557;28;20177;-40
2022/09/10 00:27:25;;;;;;;2.20;1.80;;;21.80;60.40;22.80;100259.00;;;;5068918;28;20201;-41
2022/09/10 00:29:54;;;;;;;1.90;1.70;;;21.90;60.50;22.80;100247.00;;;;5069505;28;20173;-39
2022/09/10 00:32:20;;;;;;;1.97;1.73;;;21.90;60.50;22.80;100250.00;;;;5069261;28;20194;-40
2022/09/10 00:34:47;;;;;;;1.80;1.50;;;21.90;60.50;22.80;100246.00;;;;5069047;28;20232;-41
2022/09/10 00:37:13;;;;;;;4.17;1.93;;;21.80;60.70;22.70;100251.00;;;;5068913;28;20276;-42
2022/09/10 00:39:39;;;;;;;2.53;1.60;;;21.90;60.80;22.70;100246.00;;;;5069344;28;20178;-41
2022/09/10 00:42:05;;;;;;;2.17;1.60;;;21.80;60.50;22.70;100257.00;;;;5069110;28;20255;-41
2022/09/10 00:44:39;;;;;;;1.87;1.70;;;21.80;60.50;22.70;100249.00;;;;5068868;28;20848;-40
2022/09/10 00:47:29;;;;;;;1.97;1.60;;;21.80;60.70;22.70;100254.00;;;;5068323;28;20203;-41
2022/09/10 00:50:21;;;;;;;1.50;1.40;;;21.80;60.50;22.70;100247.00;;;;5051800;28;20249;-40
2022/09/10 00:52:47;;;;;;;1.60;1.50;;;21.80;60.40;22.70;100249.00;;;;5044331;28;20209;-40
2022/09/10 00:55:13;;;;;;;1.47;1.37;;;21.80;60.90;22.60;100237.00;;;;5068313;28;20260;-39
2022/09/10 00:57:38;;;;;;;2.37;1.50;;;21.80;61.00;22.70;100238.00;;;;5067177;28;20257;-41
2022/09/10 01:00:09;;;;;;;1.70;1.60;;;21.80;60.90;22.70;100237.00;;;;5067148;28;20686;-41
2022/09/10 01:02:34;;;;;;;1.50;1.40;;;21.80;60.80;22.60;100233.00;;;;5068887;28;20165;-40
2022/09/10 01:05:01;;;;;;;1.97;1.60;;;21.80;60.60;22.70;100233.00;;;;5068576;28;20188;-42
2022/09/10 01:07:28;;;;;;;1.47;1.37;;;21.80;60.50;22.70;100231.00;;;;5041721;28;20230;-40
2022/09/10 01:09:56;;;;;;;1.57;1.47;;;21.80;60.50;22.60;100237.00;;;;5053630;28;20224;-41
2022/09/10 01:12:39;;;;;;;1.83;1.70;;;21.80;61.30;22.60;100240.00;;;;5046564;28;20198;-40
2022/09/10 01:15:51;;;;;;;2.17;1.63;;;21.80;60.60;22.60;100236.00;;;;5048137;28;20170;-41
2022/09/10 01:19:00;;;;;;;1.43;1.33;;;21.80;60.40;22.60;100233.00;;;;5047945;28;20258;-40
2022/09/10 01:21:38;;;;;;;1.77;1.50;;;21.80;60.50;22.60;100234.00;;;;5050662;28;20213;-41
2022/09/10 01:24:28;;;;;;;1.50;1.40;;;21.80;60.40;22.60;100236.00;;;;5046871;28;20233;-41
2022/09/10 01:27:34;;;;;;;1.77;1.60;;;21.70;60.60;22.30;100221.00;;;;5046547;28;20197;-39
2022/09/10 01:30:07;;;;;;;1.93;1.50;;;21.70;60.50;22.40;100225.00;;;;5047692;28;20612;-42
2022/09/10 01:33:16;;;;;;;1.50;1.40;;;21.80;60.50;22.50;100230.00;;;;5047019;28;20251;-40
2022/09/10 01:35:51;;;;;;;1.40;1.30;;;21.70;60.50;22.50;100236.00;;;;5024788;28;20194;-40
2022/09/10 01:38:33;;;;;;;1.70;1.60;;;21.70;60.30;22.50;100232.00;;;;5047031;28;20563;-39
2022/09/10 01:40:59;;;;;;;1.50;1.40;;;21.70;60.30;22.40;100163.00;;;;5046371;28;20193;-40
2022/09/10 01:43:25;;;;;;;1.50;1.40;;;21.70;61.10;22.50;100234.00;;;;5047336;28;20178;-40
2022/09/10 01:45:50;;;;;;;1.40;1.30;;;21.70;60.40;22.50;100238.00;;;;5047794;28;20666;-40
2022/09/10 01:48:28;;;;;;;1.50;1.40;;;21.70;60.40;22.50;100232.00;;;;5047339;28;20280;-41
2022/09/10 01:51:22;;;;;;;1.50;1.40;;;21.70;60.70;22.50;100241.00;;;;5046420;28;20193;-40
2022/09/10 01:54:24;;;;;;;1.43;1.33;;;21.70;60.60;22.50;100230.00;;;;5046927;28;20742;-39
2022/09/10 01:57:35;;;;;;;1.43;1.33;;;21.70;60.70;22.50;100225.00;;;;5046832;28;20233;-41
2022/09/10 02:00:14;;;;;;;1.27;1.20;;;21.70;60.60;22.50;100231.00;;;;5046609;28;20158;-41
2022/09/10 02:03:05;;;;;;;1.40;1.30;;;21.70;60.70;22.50;100224.00;;;;5046696;28;20569;-39
2022/09/10 02:05:34;;;;;;;1.40;1.30;;;21.60;60.60;22.40;100223.00;;;;5045478;28;20154;-40
2022/09/10 02:08:04;;;;;;;1.50;1.40;;;21.60;60.60;22.40;100237.00;;;;5046315;28;20568;-42
2022/09/10 02:10:30;;;;;;;1.57;1.47;;;21.50;60.70;22.40;100215.00;;;;5046397;28;20722;-41
2022/09/10 02:12:55;;;;;;;1.23;1.23;;;21.60;60.90;22.40;100233.00;;;;5046138;28;20173;-39
2022/09/10 02:15:23;;;;;;;1.90;1.40;;;21.60;61.00;22.40;100227.00;;;;5047456;28;20643;-40
2022/09/10 02:17:49;;;;;;;1.40;1.30;;;21.60;61.00;22.40;99967.00;;;;5045710;28;20193;-40
2022/09/10 02:20:14;;;;;;;1.40;1.30;;;21.60;61.00;22.40;100157.00;;;;5046032;28;20182;-40
2022/09/10 02:22:51;;;;;;;1.40;1.30;;;21.60;61.00;22.40;100230.00;;;;5046353;28;20175;-42
2022/09/10 02:25:17;;;;;;;1.30;1.20;;;21.50;60.90;22.40;100220.00;;;;5046583;28;20676;-41
2022/09/10 02:27:42;;;;;;;1.40;1.30;;;21.50;61.80;22.40;100222.00;;;;5045251;28;20201;-41
2022/09/10 02:30:10;;;;;;;1.53;1.40;;;21.50;61.00;22.40;100221.00;;;;5045897;28;20180;-42
2022/09/10 02:32:35;;;;;;;1.40;1.30;;;21.50;61.10;22.40;100231.00;;;;5046795;28;20220;-41
2022/09/10 02:35:01;;;;;;;1.83;1.50;;;21.50;61.10;22.40;100221.00;;;;5046659;28;20257;-40
2022/09/10 02:37:27;;;;;;;1.50;1.40;;;21.50;61.00;22.40;100229.00;;;;5046645;28;20185;-40
2022/09/10 02:39:54;;;;;;;2.03;1.50;;;21.50;61.00;22.40;100228.00;;;;5046694;28;20178;-42
2022/09/10 02:42:21;;;;;;;1.83;1.60;;;21.50;61.10;22.40;100220.00;;;;5046702;28;20252;-41
2022/09/10 02:44:46;;;;;;;1.53;1.40;;;21.50;61.10;22.40;100217.00;;;;5046582;28;20174;-41
2022/09/10 02:47:12;;;;;;;1.57;1.47;;;21.40;61.10;22.40;100228.00;;;;5046371;28;20684;-41
2022/09/10 02:49:38;;;;;;;1.67;1.57;;;21.50;61.20;22.40;100225.00;;;;5046744;28;20639;-39
2022/09/10 02:52:05;;;;;;;1.67;1.57;;;21.50;61.30;21.90;100162.00;;;;5046743;28;20194;-41
2022/09/10 02:54:31;;;;;;;1.40;1.30;;;21.50;61.40;22.40;100227.00;;;;5046605;28;20173;-39
2022/09/10 02:56:57;;;;;;;1.63;1.50;;;21.40;61.20;22.40;100224.00;;;;5046876;28;20643;-41
2022/09/10 02:59:23;;;;;;;1.40;1.30;;;21.50;61.40;22.40;100223.00;;;;5050958;28;20185;-41
2022/09/10 03:01:49;;;;;;;1.60;1.50;;;21.50;61.30;22.30;100224.00;;;;5049906;28;20259;-39
2022/09/10 03:04:15;;;;;;;1.57;1.47;;;21.50;61.30;22.30;100223.00;;;;5045341;28;20177;-40
2022/09/10 03:06:42;;;;;;;1.50;1.40;;;21.50;61.50;22.30;100227.00;;;;5046493;28;20218;-40
2022/09/10 03:09:08;;;;;;;1.40;1.30;;;21.40;61.20;22.30;100212.00;;;;5046019;28;20181;-40
2022/09/10 03:11:37;;;;;;;1.37;1.27;;;21.40;61.20;22.30;100203.00;;;;5046461;28;20198;-40
2022/09/10 03:14:02;;;;;;;1.40;1.30;;;21.40;61.20;22.30;100219.00;;;;5045049;28;20163;-40
2022/09/10 03:16:28;;;;;;;1.30;1.20;;;21.40;61.20;22.30;100225.00;;;;5046086;28;20196;-40
2022/09/10 03:18:54;;;;;;;1.40;1.30;;;21.40;61.20;22.30;100217.00;;;;5046079;28;20564;-40
2022/09/10 03:21:21;;;;;;;1.40;1.30;;;21.40;61.10;22.30;100215.00;;;;5046420;28;20784;-40
2022/09/10 03:23:48;;;;;;;1.70;1.60;;;21.40;61.20;22.30;100222.00;;;;5050091;28;20162;-40
2022/09/10 03:26:15;;;;;;;1.60;1.50;;;21.40;61.20;22.30;100212.00;;;;5046937;28;20174;-41
2022/09/10 03:28:42;;;;;;;1.80;1.40;;;21.40;61.30;22.30;100213.00;;;;5045825;28;20198;-41
2022/09/10 03:31:08;;;;;;;2.57;1.47;;;21.40;61.40;22.30;100218.00;;;;5045947;28;20671;-39
2022/09/10 03:33:33;;;;;;;4.10;1.73;;;21.40;61.40;22.30;100218.00;;;;5046211;28;20177;-39
2022/09/10 03:36:00;;;;;;;2.30;1.50;;;21.40;61.70;22.30;100209.00;;;;5046061;28;20533;-40
2022/09/10 03:38:26;;;;;;;1.43;1.33;;;21.40;61.40;22.30;100211.00;;;;5045907;28;20212;-40
2022/09/10 03:40:52;;;;;;;3.07;1.30;;;21.40;61.30;22.30;100217.00;;;;5046139;28;20224;-40
2022/09/10 03:43:20;;;;;;;2.00;1.33;;;21.40;61.30;22.30;100216.00;;;;5045754;28;20208;-39
2022/09/10 03:45:50;;;;;;;1.97;1.50;;;21.40;61.30;22.30;100209.00;;;;5044689;28;20181;-39
2022/09/10 03:48:19;;;;;;;3.30;1.40;;;21.40;61.10;22.30;100210.00;;;;5045762;28;20222;-41
2022/09/10 03:50:45;;;;;;;1.90;1.20;;;21.40;61.10;22.30;100213.00;;;;5044391;28;20233;-40
2022/09/10 03:53:12;;;;;;;1.87;1.60;;;21.40;61.10;22.30;100221.00;;;;5045332;28;20186;-40
2022/09/10 03:55:37;;;;;;;1.60;1.50;;;21.30;61.00;22.30;100218.00;;;;5056747;28;20287;-41
2022/09/10 03:58:05;;;;;;;3.37;1.60;;;21.40;61.00;22.30;100214.00;;;;5064659;28;20595;-41
2022/09/10 04:00:32;;;;;;;1.70;1.60;;;21.30;60.80;22.30;100224.00;;;;5064784;28;20194;-42
2022/09/10 04:02:57;;;;;;;2.33;1.60;;;21.30;60.80;22.30;100213.00;;;;5051463;28;20185;-40
2022/09/10 04:05:25;;;;;;;1.57;1.43;;;21.40;60.70;22.30;100224.00;;;;5045439;28;20642;-40
2022/09/10 04:07:52;;;;;;;3.53;1.60;;;21.30;60.50;22.30;100218.00;;;;5045156;28;20240;-42
2022/09/10 04:10:20;;;;;;;4.60;1.80;;;21.40;60.70;22.30;100228.00;;;;5045608;28;20680;-40
2022/09/10 04:12:47;;;;;;;3.20;1.70;;;21.40;60.70;22.30;100221.00;;;;5045310;28;20707;-40
2022/09/10 04:15:13;;;;;;;2.33;1.40;;;21.40;60.50;22.40;100227.00;;;;5045635;28;20176;-41
2022/09/10 04:17:40;;;;;;;2.20;1.60;;;21.30;60.40;22.40;100228.00;;;;5044863;28;20721;-41
2022/09/10 04:20:06;;;;;;;5.07;1.77;;;21.40;60.50;22.40;100223.00;;;;5045435;28;20532;-40
2022/09/10 04:22:33;;;;;;;3.27;1.40;;;21.40;60.40;22.40;100226.00;;;;5045391;28;20269;-41
2022/09/10 04:24:59;;;;;;;4.70;1.50;;;21.30;60.30;22.40;100232.00;;;;5044485;28;20192;-40
2022/09/10 04:27:25;;;;;;;2.13;1.33;;;21.40;60.40;22.40;100235.00;;;;5044819;28;20198;-40
2022/09/10 04:29:51;;;;;;;4.57;1.87;;;21.40;60.40;22.40;100232.00;;;;5048590;28;20522;-40
2022/09/10 04:32:17;;;;;;;1.30;1.20;;;21.30;61.20;22.30;100232.00;;;;5048832;28;20223;-41
2022/09/10 04:34:43;;;;;;;4.23;1.90;;;21.30;60.30;22.40;100241.00;;;;5048294;28;20185;-40
2022/09/10 04:37:09;;;;;;;3.63;1.80;;;21.30;60.40;22.30;100233.00;;;;5048883;28;20178;-40
2022/09/10 04:39:35;;;;;;;2.67;1.80;;;21.30;60.30;22.30;100235.00;;;;5049369;28;20174;-41
2022/09/10 04:42:02;;;;;;;4.83;1.73;;;21.30;60.60;22.30;100237.00;;;;5049161;28;20251;-41
2022/09/10 04:44:28;;;;;;;6.03;1.70;;;21.30;60.70;22.30;100233.00;;;;5049893;28;20189;-41
2022/09/10 04:46:54;;;;;;;5.87;1.73;;;21.30;60.70;22.30;100239.00;;;;5047557;28;20198;-40
2022/09/10 04:49:20;;;;;;;6.57;1.90;;;21.30;60.90;22.30;100242.00;;;;5049541;28;20185;-39
2022/09/10 04:51:46;;;;;;;5.50;2.00;;;21.30;60.90;22.30;100233.00;;;;5049397;28;20201;-41
2022/09/10 04:54:15;;;;;;;5.53;1.93;;;21.30;60.80;22.30;100244.00;;;;5049263;28;20174;-41
2022/09/10 04:56:41;;;;;;;7.33;2.00;;;21.30;60.80;22.30;100233.00;;;;5049222;28;20162;-41
2022/09/10 04:59:07;;;;;;;7.00;1.77;;;21.30;60.90;22.30;100230.00;;;;5048186;28;20178;-40
2022/09/10 05:01:33;;;;;;;7.73;1.90;;;21.30;60.90;22.30;100237.00;;;;5048361;28;20697;-40
2022/09/10 05:03:59;;;;;;;10.13;2.10;;;21.20;60.90;22.30;100237.00;;;;5049634;28;20170;-40
2022/09/10 05:06:25;;;;;;;3.33;1.80;;;21.30;61.10;22.30;100238.00;;;;5048917;28;20790;-41
2022/09/10 05:08:50;;;;;;;6.97;2.00;;;21.30;61.10;22.30;100240.00;;;;5049162;28;20573;-41
2022/09/10 05:11:18;;;;;;;5.57;1.90;;;21.20;61.10;22.20;100235.00;;;;5049490;28;20190;-40
2022/09/10 05:13:44;;;;;;;5.23;2.10;;;21.20;61.20;22.20;100246.00;;;;5049118;28;20199;-40
2022/09/10 05:16:10;;;;;;;7.70;2.50;;;21.20;61.30;22.20;100245.00;;;;5048869;28;20635;-42
2022/09/10 05:18:36;;;;;;;8.37;2.00;;;21.20;61.30;22.20;100244.00;;;;5048757;28;20215;-41
2022/09/10 05:21:02;;;;;;;9.13;2.40;;;21.20;62.00;22.20;100245.00;;;;5049107;28;20190;-39
2022/09/10 05:23:28;;;;;;;10.43;2.37;;;21.20;61.70;22.20;100245.00;;;;5049791;28;20163;-45
2022/09/10 05:25:55;;;;;;;13.60;2.47;;;21.20;61.60;22.20;100241.00;;;;5049423;28;20224;-40
2022/09/10 05:28:21;;;;;;;6.37;2.10;;;21.20;61.60;22.20;100247.00;;;;5047343;28;20232;-40
2022/09/10 05:30:47;;;;;;;9.50;2.47;;;21.20;62.60;22.10;100242.00;;;;5047773;28;20307;-41
2022/09/10 05:33:13;;;;;;;10.80;2.50;;;21.20;61.90;22.10;100248.00;;;;5047279;28;20230;-40
2022/09/10 05:35:38;;;;;;;8.40;2.43;;;21.20;62.00;22.10;100258.00;;;;5048123;28;20198;-40
2022/09/10 05:38:04;;;;;;;8.80;2.30;;;21.10;61.70;22.10;100250.00;;;;5048734;28;20276;-43
2022/09/10 05:40:30;;;;;;;5.57;2.17;;;21.20;61.80;22.10;100258.00;;;;5048252;28;20198;-45
2022/09/10 05:42:55;;;;;;;9.03;2.30;;;21.20;61.70;22.10;100255.00;;;;5048602;28;20188;-39
2022/09/10 05:45:22;;;;;;;4.13;2.30;;;21.20;61.90;22.10;100247.00;;;;5048442;28;20259;-40
2022/09/10 05:47:48;;;;;;;6.87;2.40;;;21.10;61.70;22.00;100244.00;;;;5048422;28;20216;-40
2022/09/10 05:50:16;;;;;;;5.03;2.20;;;21.10;61.80;22.10;100255.00;;;;5048591;28;20171;-40
2022/09/10 05:52:41;;;;;;;5.63;2.40;;;21.10;61.80;22.00;100256.00;;;;5048718;28;20682;-40
2022/09/10 05:55:08;;;;;;;6.73;2.43;;;21.10;61.80;22.00;100256.00;;;;5048688;28;20231;-39
2022/09/10 05:57:34;;;;;;;5.50;2.23;;;21.10;61.70;22.00;100260.00;;;;5046776;28;20207;-41
2022/09/10 06:00:00;;;;;;;3.80;2.07;;;21.10;61.90;22.00;100268.00;;;;5048107;28;20174;-42
2022/09/10 06:02:26;;;;;;;5.87;2.00;;;21.10;61.90;22.00;100270.00;;;;5048462;28;20200;-42
2022/09/10 06:04:52;;;;;;;6.33;2.20;;;21.10;62.40;22.00;100264.00;;;;5048490;28;20204;-42
2022/09/10 06:07:17;;;;;;;5.97;2.33;;;21.10;62.10;22.00;100261.00;;;;5049881;28;20282;-46
2022/09/10 06:09:43;;;;;;;4.10;1.90;;;21.10;62.30;22.00;100269.00;;;;5048983;28;20709;-40
2022/09/10 06:12:09;;;;;;;4.47;2.00;;;21.10;62.10;22.00;100280.00;;;;5048575;28;20193;-41
2022/09/10 06:14:35;;;;;;;5.03;2.03;;;21.10;62.10;22.00;100276.00;;;;5048176;28;20181;-39
2022/09/10 06:17:00;;;;;;;4.93;2.00;;;21.00;62.00;22.00;100268.00;;;;5047853;28;20258;-41
2022/09/10 06:19:26;;;;;;;5.37;2.30;;;21.10;62.10;22.00;100275.00;;;;5047845;28;20172;-41
2022/09/10 06:21:52;;;;;;;6.83;2.27;;;21.00;62.00;22.00;100280.00;;;;5047944;28;20336;-40
2022/09/10 06:24:21;;;;;;;4.90;1.90;;;21.10;62.10;22.00;100280.00;;;;5047830;28;20185;-40
2022/09/10 06:26:48;;;;;;;5.00;2.00;;;21.10;62.10;21.70;100279.00;;;;5047767;28;20548;-40
2022/09/10 06:29:14;;;;;;;3.77;1.90;;;21.10;62.10;22.00;100288.00;;;;5047820;28;20171;-40
2022/09/10 06:31:41;;;;;;;3.57;1.90;;;21.10;62.10;22.00;100292.00;;;;5047466;28;20199;-40
2022/09/10 06:34:07;;;;;;;5.20;2.30;;;21.10;62.10;21.90;100288.00;;;;5047521;28;20165;-40
2022/09/10 06:36:33;;;;;;;3.10;2.07;;;21.10;62.10;21.90;100293.00;;;;5047725;28;20587;-40
2022/09/10 06:39:00;;;;;;;4.27;2.13;;;21.10;62.20;21.90;100285.00;;;;5047713;28;20226;-41
2022/09/10 06:41:29;;;;;;;3.97;1.87;;;21.10;62.20;21.90;100300.00;;;;5047557;28;20192;-40
2022/09/10 06:43:56;;;;;;;3.03;2.10;;;21.10;62.10;21.90;100293.00;;;;5047399;28;20650;-40
2022/09/10 06:46:21;;;;;;;4.20;2.00;;;21.00;62.00;21.90;100294.00;;;;5047503;28;20517;-41
2022/09/10 06:48:47;;;;;;;3.17;1.90;;;21.10;62.30;21.90;100294.00;;;;5047271;28;20259;-40
2022/09/10 06:51:13;;;;;;;2.87;1.90;;;21.00;62.10;21.90;100298.00;;;;5047080;28;20193;-40
2022/09/10 06:53:40;;;;;;;4.47;1.87;;;21.00;62.10;21.90;100307.00;;;;5047220;28;20191;-39
2022/09/10 06:56:08;;;;;;;4.47;1.70;;;21.00;62.10;21.70;100311.00;;;;5047665;28;20181;-41
2022/09/10 06:58:34;;;;;;;2.73;1.80;;;21.00;62.20;21.90;100304.00;;;;5046279;28;20174;-41
2022/09/10 07:01:20;;;;;;;3.40;1.97;;;21.00;62.10;21.90;100315.00;;;;5047226;28;20207;-41
2022/09/10 07:03:46;;;;;;;1.70;1.50;;;21.00;62.30;21.90;100311.00;;;;5057776;28;20811;-40
2022/09/10 07:06:14;;;;;;;3.03;1.77;;;21.00;62.30;21.90;100309.00;;;;5047005;28;20178;-40
2022/09/10 07:08:40;;;;;;;3.40;1.93;;;21.00;63.10;21.90;100287.00;;;;5046562;28;20693;-40
2022/09/10 07:11:11;;;;;;;3.33;1.80;;;21.00;62.20;21.90;100306.00;;;;5045544;28;20202;-39
2022/09/10 07:13:37;;;;;;;3.93;1.90;;;21.00;62.10;21.90;100315.00;;;;5045885;28;20173;-41
2022/09/10 07:16:03;;;;;;;3.23;1.60;;;21.00;62.20;21.90;100314.00;;;;5046741;28;20638;-40
2022/09/10 07:18:29;;;;;;;3.27;1.77;;;21.00;62.00;21.90;100320.00;;;;5046336;28;20188;-41
2022/09/10 07:21:11;;;;;;;2.33;1.80;;;21.10;62.20;21.90;100307.00;;;;5047000;28;20210;-41
2022/09/10 07:23:40;;;;;;;3.20;1.70;;;21.00;62.10;21.90;100311.00;;;;5046478;28;20250;-42
2022/09/10 07:26:08;;;;;;;2.53;1.90;;;21.00;62.10;21.90;100316.00;;;;5001578;28;20212;-39
2022/09/10 07:28:35;;;;;;;3.70;1.80;;;21.00;62.10;21.80;100325.00;;;;5055532;28;20193;-41
2022/09/10 07:31:10;;;;;;;2.53;1.70;;;21.00;62.10;21.80;100321.00;;;;5066119;28;20197;-40
2022/09/10 07:33:36;;;;;;;2.73;1.73;;;21.00;62.10;21.80;100332.00;;;;5065485;28;20174;-40
2022/09/10 07:36:05;;;;;;;2.20;1.90;;;21.00;62.10;21.90;100332.00;;;;5071553;28;20216;-39
2022/09/10 07:38:31;;;;;;;2.57;1.60;;;21.00;62.00;21.90;100324.00;;;;5089808;28;20156;-47
2022/09/10 07:40:59;;;;;;;3.30;1.70;;;21.00;62.10;21.90;100323.00;;;;5087591;28;20192;-40
2022/09/10 07:43:24;;;;;;;2.30;1.80;;;21.00;62.10;21.90;100331.00;;;;5069185;28;20173;-40
2022/09/10 07:45:50;;;;;;;2.93;1.80;;;21.00;62.10;21.90;100330.00;;;;5065359;28;20690;-39
2022/09/10 07:48:16;;;;;;;3.93;1.70;;;21.00;62.30;21.90;100330.00;;;;5062872;28;20809;-40
2022/09/10 07:50:42;;;;;;;3.27;1.90;;;21.00;62.30;21.90;100324.00;;;;5063679;28;20209;-50
2022/09/10 07:53:07;;;;;;;2.93;1.73;;;21.00;62.30;21.90;100338.00;;;;5063827;28;20234;-42
2022/09/10 07:55:33;;;;;;;2.33;1.87;;;21.00;62.30;21.90;100337.00;;;;5064412;28;20165;-40
2022/09/10 07:57:59;;;;;;;2.50;1.80;;;21.00;62.40;21.90;100335.00;;;;5066304;28;20177;-40
2022/09/10 08:00:25;;;;;;;1.93;1.50;;;21.00;62.30;21.90;100343.00;;;;5084876;28;20574;-40
2022/09/10 08:02:50;;;;;;;3.60;1.73;;;20.90;62.20;21.90;100337.00;;;;5087343;28;20625;-41
2022/09/10 08:05:16;;;;;;;2.00;1.80;;;20.90;62.30;21.90;100334.00;;;;5089840;28;20176;-40
2022/09/10 08:07:42;;;;;;;2.30;1.80;;;20.90;62.30;21.90;100331.00;;;;5068611;28;20205;-41
2022/09/10 08:10:08;;;;;;;1.57;1.43;;;20.90;62.40;21.90;100333.00;;;;5049480;28;20268;-40
2022/09/10 08:12:38;;;;;;;1.90;1.60;;;20.90;62.50;21.90;100341.00;;;;5049786;28;20174;-40
2022/09/10 08:15:06;;;;;;;6.27;1.80;;;20.90;62.50;21.90;100344.00;;;;5050002;28;20206;-41
2022/09/10 08:17:32;;;;;;;3.13;1.83;;;21.00;63.20;21.90;100338.00;;;;5049725;28;20258;-40
2022/09/10 08:19:58;;;;;;;8.50;2.00;;;21.00;62.80;21.90;100340.00;;;;5049921;28;20257;-40
2022/09/10 08:22:24;;;;;;;4.47;1.80;;;21.00;62.80;22.00;100347.00;;;;5066818;28;20805;-39
2022/09/10 08:24:49;;;;;;;5.47;1.63;;;21.10;62.80;22.00;100336.00;;;;5069591;28;20202;-40
2022/09/10 08:27:15;;;;;;;5.57;1.70;;;21.10;63.10;22.00;100342.00;;;;5023906;28;20566;-40
2022/09/10 08:29:42;;;;;;;7.93;2.10;;;21.10;63.10;22.00;100337.00;;;;5069688;28;20694;-40
2022/09/10 08:32:08;;;;;;;3.17;2.00;;;21.00;62.90;22.00;100345.00;;;;5069475;28;20601;-41
2022/09/10 08:34:34;;;;;;;6.87;2.07;;;21.00;63.90;22.00;100309.00;;;;5068732;28;20173;-41
2022/09/10 08:37:02;;;;;;;4.37;1.90;;;21.10;63.90;22.00;100347.00;;;;5069333;28;20189;-40
2022/09/10 08:39:29;;;;;;;4.40;1.80;;;21.10;64.30;22.00;100350.00;;;;5070019;28;20223;-40
2022/09/10 08:41:59;;;;;;;3.90;2.10;;;21.10;64.70;22.10;100358.00;;;;5069390;28;20298;-40
2022/09/10 08:44:34;;;;;;;4.00;1.90;;;21.10;64.60;22.10;100354.00;;;;5068338;28;20249;-39
2022/09/10 08:47:39;;;;;;;2.93;1.90;;;21.10;64.70;22.10;100352.00;;;;5069740;28;20208;-39
2022/09/10 08:50:46;;;;;;;2.70;2.00;;;21.10;64.40;22.10;100348.00;;;;5065552;28;20271;-41
2022/09/10 08:53:58;;;;;;;2.53;1.70;;;21.10;64.30;22.10;100346.00;;;;5047499;28;20192;-40
2022/09/10 08:56:24;;;;;;;1.93;1.70;;;21.10;64.30;22.10;100342.00;;;;4990955;28;20195;-41
2022/09/10 08:58:55;;;;;;;2.53;1.80;;;21.10;64.20;22.10;100346.00;;;;5055110;28;20253;-40
2022/09/10 09:01:35;;;;;;;2.50;1.87;;;21.10;64.90;22.10;100346.00;;;;5071716;28;20203;-39
2022/09/10 09:04:04;;;;;;;2.77;1.80;;;21.10;64.10;22.10;100347.00;;;;5088009;28;20626;-41
2022/09/10 09:06:43;;;;;;;2.13;1.80;;;21.10;64.20;22.10;100335.00;;;;5071348;28;20165;-39
2022/09/10 09:09:09;;;;;;;3.53;1.90;;;21.10;64.10;22.10;100341.00;;;;5071705;28;20280;-42
2022/09/10 09:12:25;;;;;;;3.03;1.90;;;21.10;63.90;22.10;100340.00;;;;5097045;28;20212;-41
2022/09/10 09:15:30;;;;;;;5.37;2.10;;;21.10;64.00;22.10;100340.00;;;;5012825;28;20184;-42
2022/09/10 09:18:19;;;;;;;2.27;2.00;;;21.10;63.70;22.10;100335.00;;;;4995212;28;20207;-39
2022/09/10 09:20:47;;;;;;;3.13;1.67;;;21.10;63.90;22.10;100339.00;;;;5059814;28;20208;-41
2022/09/10 09:23:23;;;;;;;2.00;1.70;;;21.20;63.90;22.10;100324.00;;;;5067860;28;20255;-41
2022/09/10 09:26:19;;;;;;;1.97;1.60;;;21.10;63.70;22.10;100335.00;;;;5022600;28;20177;-40
2022/09/10 09:29:36;;;;;;;1.90;1.50;;;21.10;63.70;22.10;100343.00;;;;5063500;28;20885;-41
2022/09/10 09:32:03;;;;;;;2.83;1.70;;;21.10;63.70;22.10;100338.00;;;;5012043;28;20200;-40
2022/09/10 09:34:41;;;;;;;2.20;1.67;;;21.10;63.50;22.10;100335.00;;;;5084241;28;20254;-41
2022/09/10 09:37:21;;;;;;;3.50;1.73;;;21.10;63.80;22.10;100346.00;;;;5067494;28;20160;-41
2022/09/10 09:40:03;;;;;;;2.77;1.80;;;21.20;64.40;22.10;100337.00;;;;5067163;28;20188;-40
2022/09/10 09:42:46;;;;;;;3.47;1.70;;;21.10;64.00;22.10;100343.00;;;;5054829;28;20185;-42
2022/09/10 09:45:27;;;;;;;2.13;1.73;;;21.10;63.80;22.10;100350.00;;;;5057050;28;20806;-40
2022/09/10 09:47:53;;;;;;;2.97;1.83;;;21.10;64.00;22.10;100353.00;;;;5069248;28;20189;-41
2022/09/10 09:50:19;;;;;;;1.83;1.60;;;21.10;63.90;22.10;100356.00;;;;5072042;28;20170;-40
2022/09/10 09:52:45;;;;;;;2.60;1.67;;;21.10;63.80;22.10;100358.00;;;;5092175;28;20160;-41
2022/09/10 09:55:34;;;;;;;1.77;1.67;;;21.10;63.70;22.10;100355.00;;;;5090090;28;20264;-41
2022/09/10 09:58:28;;;;;;;3.47;1.70;;;21.10;63.70;22.10;100350.00;;;;5069128;28;20297;-40
2022/09/10 10:01:03;;;;;;;2.13;1.83;;;21.10;64.20;22.10;100345.00;;;;5080326;28;20692;-41
2022/09/10 10:03:31;;;;;;;2.67;1.73;;;21.10;64.00;22.10;100362.00;;;;5087167;28;20171;-40
2022/09/10 10:06:08;;;;;;;2.00;1.70;;;21.10;64.10;22.10;100343.00;;;;5069875;28;20661;-41
2022/09/10 10:08:53;;;;;;;2.50;1.80;;;21.10;64.20;22.10;100353.00;;;;5070076;28;20203;-40
2022/09/10 10:11:20;;;;;;;2.17;1.80;;;21.10;64.10;22.10;100318.00;;;;5088033;28;20200;-41
2022/09/10 10:13:46;;;;;;;2.83;1.70;;;21.10;63.90;22.10;100340.00;;;;5069970;28;20605;-41
2022/09/10 10:16:34;;;;;;;2.07;1.60;;;21.10;63.90;22.10;100338.00;;;;5087901;28;20166;-40
2022/09/10 10:19:00;;;;;;;1.80;1.40;;;21.10;63.70;22.10;100339.00;;;;5087593;28;20690;-40
2022/09/10 10:21:33;;;;;;;2.10;1.90;;;21.10;63.70;22.10;100335.00;;;;5077473;28;20197;-40
2022/09/10 10:23:59;;;;;;;2.83;1.63;;;21.10;63.70;22.10;100338.00;;;;5067685;28;20261;-41
2022/09/10 10:26:30;;;;;;;1.90;1.67;;;21.10;63.70;22.10;100333.00;;;;5020560;28;20181;-40
2022/09/10 10:29:05;;;;;;;1.77;1.67;;;21.00;63.50;21.80;100309.00;;;;5066262;28;20451;-40
2022/09/10 10:31:37;;;;;;;2.20;1.67;;;21.10;63.60;22.10;100330.00;;;;5050626;28;20674;-40
2022/09/10 10:34:09;;;;;;;3.43;1.90;;;21.10;63.60;22.10;100316.00;;;;5067675;28;20418;-41
2022/09/10 10:37:24;;;;;;;1.80;1.57;;;21.00;63.50;22.00;100317.00;;;;5067009;28;20257;-40
2022/09/10 10:40:20;;;;;;;1.90;1.63;;;21.00;63.40;22.00;100311.00;;;;5067179;28;20191;-40
2022/09/10 10:43:46;;;;;;;1.63;1.53;;;21.10;63.50;22.00;100315.00;;;;5055629;28;20188;-40
2022/09/10 10:46:21;;;;;;;3.27;1.70;;;21.10;63.40;22.00;100297.00;;;;5067261;28;20277;-39
2022/09/10 10:49:04;;;;;;;2.60;1.60;;;21.10;63.70;22.00;100324.00;;;;5050125;28;20203;-40
2022/09/10 10:52:11;;;;;;;2.27;1.70;;;21.10;63.60;22.00;100320.00;;;;5050998;28;20188;-40
2022/09/10 10:54:55;;;;;;;2.37;1.80;;;21.10;63.70;22.00;100332.00;;;;5054712;28;20199;-41
2022/09/10 10:57:31;;;;;;;2.37;1.80;;;21.10;63.60;22.00;100306.00;;;;5087368;28;20225;-40
2022/09/10 11:00:06;;;;;;;3.57;1.77;;;21.10;63.60;22.00;100317.00;;;;5085795;28;20160;-41
2022/09/10 11:03:15;;;;;;;3.10;1.60;;;21.10;63.80;22.00;100318.00;;;;5067371;28;20177;-41
2022/09/10 11:05:47;;;;;;;2.00;1.80;;;21.10;64.00;22.00;100331.00;;;;5052066;28;20189;-42